createdAt,value
2022-09-27T08:22:24.368Z,11.02
2022-09-27T08:25:03.921Z,9.83
2022-09-27T08:27:45.312Z,9.95
2022-09-27T08:30:27.533Z,10.02
2022-09-27T08:33:01.204Z,8.70
2022-09-27T08:35:34.295Z,10.13
2022-09-27T08:38:08.075Z,9.05
2022-09-27T08:40:58.506Z,8.52
2022-09-27T08:43:37.876Z,8.90
2022-09-27T08:46:34.660Z,7.70
2022-09-27T08:49:13.212Z,8.18
2022-09-27T08:51:47.254Z,7.72
2022-09-27T08:54:28.998Z,7.63
2022-09-27T08:57:04.089Z,8.70
2022-09-27T08:59:40.375Z,7.85
2022-09-27T09:02:19.456Z,7.45
2022-09-27T09:04:55.903Z,7.85
2022-09-27T09:07:28.863Z,8.50
2022-09-27T09:10:39.724Z,7.70
2022-09-27T09:13:14.413Z,7.00
2022-09-27T09:15:58.798Z,6.72
2022-09-27T09:18:58.267Z,7.57
2022-09-27T09:22:19.229Z,7.30
2022-09-27T09:25:04.447Z,6.60
2022-09-27T09:28:02.469Z,7.50
2022-09-27T09:30:42.291Z,6.95
2022-09-27T09:33:16.532Z,7.13
2022-09-27T09:35:52.720Z,7.70
2022-09-27T09:38:40.852Z,6.95
2022-09-27T09:41:24.436Z,8.48
2022-09-27T09:44:01.965Z,8.73
2022-09-27T09:46:45.684Z,8.60
2022-09-27T09:49:28.098Z,8.10
2022-09-27T09:52:21.440Z,9.18
2022-09-27T09:54:59.271Z,9.03
2022-09-27T09:57:39.380Z,8.52
2022-09-27T10:00:15.553Z,8.35
2022-09-27T10:02:55.955Z,9.75
2022-09-27T10:05:29.078Z,8.98
2022-09-27T10:08:11.504Z,8.98
2022-09-27T10:10:44.572Z,8.38
2022-09-27T10:13:49.573Z,8.35
2022-09-27T10:16:22.952Z,8.63
2022-09-27T10:19:00.614Z,8.50
2022-09-27T10:21:34.216Z,8.05
2022-09-27T10:24:18.622Z,8.57
2022-09-27T10:27:01.051Z,7.45
2022-09-27T10:29:38.315Z,7.45
2022-09-27T10:32:31.172Z,7.28
2022-09-27T10:35:29.537Z,7.28
2022-09-27T10:38:17.409Z,6.53
2022-09-27T10:40:51.637Z,7.15
2022-09-27T10:43:29.394Z,7.00
2022-09-27T10:46:14.423Z,7.45
2022-09-27T10:49:08.089Z,7.53
2022-09-27T10:51:41.268Z,6.00
2022-09-27T10:54:28.172Z,6.22
2022-09-27T10:57:18.613Z,7.00
2022-09-27T11:00:02.651Z,6.30
2022-09-27T11:02:38.298Z,6.70
2022-09-27T11:05:31.453Z,5.97
2022-09-27T11:08:20.041Z,5.75
2022-09-27T11:11:13.822Z,6.47
2022-09-27T11:13:58.271Z,5.95
2022-09-27T11:16:49.586Z,7.30
2022-09-27T11:19:28.730Z,7.23
2022-09-27T11:22:20.105Z,8.32
2022-09-27T11:25:01.054Z,6.97
2022-09-27T11:27:55.328Z,7.67
2022-09-27T11:30:55.824Z,6.85
2022-09-27T11:33:57.567Z,8.05
2022-09-27T11:36:46.564Z,7.15
2022-09-27T11:39:23.544Z,6.88
2022-09-27T11:41:58.600Z,6.47
2022-09-27T11:44:39.603Z,7.05
2022-09-27T11:47:18.859Z,6.82
2022-09-27T11:50:18.786Z,4.05
2022-09-27T11:53:01.006Z,3.50
2022-09-27T11:55:44.378Z,2.00
2022-09-27T11:58:23.504Z,1.92
2022-09-27T12:01:18.984Z,1.60
2022-09-27T12:04:00.687Z,1.65
2022-09-27T12:06:38.106Z,1.73
2022-09-27T12:09:15.295Z,2.08
2022-09-27T12:11:53.037Z,2.30
2022-09-27T12:14:34.760Z,2.22
2022-09-27T12:17:13.424Z,2.60
2022-09-27T12:19:51.976Z,2.42
2022-09-27T12:22:54.346Z,2.30
2022-09-27T12:25:34.659Z,2.00
2022-09-27T12:28:37.424Z,2.90
2022-09-27T12:31:35.010Z,2.30
2022-09-27T12:34:09.902Z,2.22
2022-09-27T12:36:46.527Z,1.83
2022-09-27T12:39:38.506Z,1.45
2022-09-27T12:46:12.212Z,1.40
2022-09-27T12:48:49.653Z,1.60
2022-09-27T12:51:24.471Z,2.00
2022-09-27T12:54:24.527Z,2.13
2022-09-27T12:57:02.401Z,1.85
2022-09-27T12:59:53.723Z,1.58
2022-09-27T13:02:26.763Z,1.57
2022-09-27T13:05:02.410Z,1.50
2022-09-27T13:07:35.578Z,1.80
2022-09-27T13:10:12.591Z,1.80
2022-09-27T13:12:51.227Z,2.00
2022-09-27T13:15:29.828Z,1.60
2022-09-27T13:18:29.573Z,2.00
2022-09-27T13:21:07.230Z,2.15
2022-09-27T13:23:53.619Z,2.55
2022-09-27T13:26:44.401Z,2.58
2022-09-27T13:29:26.594Z,2.10
2022-09-27T13:32:03.033Z,2.50
2022-09-27T13:34:57.486Z,1.70
2022-09-27T13:37:45.912Z,2.10
2022-09-27T13:40:24.715Z,2.93
2022-09-27T13:43:31.743Z,2.90
2022-09-27T13:46:16.144Z,3.50
2022-09-27T13:48:56.574Z,3.00
2022-09-27T13:51:38.055Z,2.95
2022-09-27T13:54:29.421Z,3.28
2022-09-27T13:57:02.674Z,4.00
2022-09-27T13:59:36.524Z,3.35
2022-09-27T14:02:55.799Z,4.47
2022-09-27T14:05:35.144Z,4.20
2022-09-27T14:08:14.643Z,4.20
2022-09-27T14:10:48.256Z,3.80
2022-09-27T14:13:23.155Z,3.77
2022-09-27T14:16:07.574Z,3.78
2022-09-27T14:18:56.628Z,2.78
2022-09-27T14:21:40.331Z,2.88
2022-09-27T14:24:25.285Z,2.67
2022-09-27T14:27:12.738Z,3.88
2022-09-27T14:30:01.189Z,2.55
2022-09-27T14:32:47.253Z,2.40
2022-09-27T14:35:45.500Z,2.60
2022-09-27T14:38:37.000Z,2.93
2022-09-27T14:41:20.878Z,2.30
2022-09-27T14:43:54.069Z,2.70
2022-09-27T14:46:28.787Z,3.10
2022-09-27T14:49:14.255Z,3.67
2022-09-27T14:51:54.372Z,4.05
2022-09-27T14:54:29.534Z,2.55
2022-09-27T14:57:02.382Z,6.78
2022-09-27T14:59:36.326Z,5.30
2022-09-27T15:02:15.538Z,5.85
2022-09-27T15:04:49.147Z,5.85
2022-09-27T15:07:23.014Z,4.90
2022-09-27T15:09:57.039Z,4.57
2022-09-27T15:12:30.704Z,3.80
2022-09-27T15:15:03.719Z,4.82
2022-09-27T15:17:42.979Z,5.90
2022-09-27T15:20:24.926Z,7.20
2022-09-27T15:23:05.065Z,9.68
2022-09-27T15:25:56.364Z,6.55
2022-09-27T15:28:29.447Z,4.70
2022-09-27T15:31:02.347Z,5.38
2022-09-27T15:33:36.646Z,6.18
2022-09-27T15:36:11.806Z,5.82
2022-09-27T15:38:47.789Z,5.15
2022-09-27T15:41:21.650Z,3.92
2022-09-27T15:43:54.926Z,4.40
2022-09-27T15:46:38.353Z,3.58
2022-09-27T15:49:17.474Z,2.97
2022-09-27T15:51:54.210Z,2.67
2022-09-27T15:54:30.602Z,2.78
2022-09-27T15:57:05.082Z,4.50
2022-09-27T15:59:39.300Z,3.67
2022-09-27T16:02:16.870Z,4.93
2022-09-27T16:04:49.714Z,4.20
2022-09-27T16:07:22.972Z,5.10
2022-09-27T16:09:55.945Z,4.70
2022-09-27T16:12:30.616Z,5.53
2022-09-27T16:15:03.504Z,4.25
2022-09-27T16:17:38.250Z,3.60
2022-09-27T16:20:16.709Z,3.45
2022-09-27T16:22:49.500Z,3.10
2022-09-27T16:25:22.940Z,3.30
2022-09-27T16:28:18.398Z,3.50
2022-09-27T16:30:51.392Z,4.38
2022-09-27T16:33:24.391Z,3.70
2022-09-27T16:35:57.215Z,3.45
2022-09-27T16:38:30.656Z,4.85
2022-09-27T16:41:03.850Z,6.65
2022-09-27T16:43:36.512Z,7.85
2022-09-27T16:46:12.087Z,6.97
2022-09-27T16:48:45.415Z,5.50
2022-09-27T16:51:37.938Z,5.28
2022-09-27T16:54:10.752Z,5.85
2022-09-27T16:56:45.339Z,5.55
2022-09-27T16:59:18.030Z,5.75
2022-09-27T17:01:51.111Z,7.20
2022-09-27T17:04:24.541Z,7.68
2022-09-27T17:06:57.717Z,6.63
2022-09-27T17:09:30.694Z,5.78
2022-09-27T17:12:03.607Z,7.72
2022-09-27T17:14:36.085Z,6.95
2022-09-27T17:17:09.146Z,5.07
2022-09-27T17:19:41.720Z,5.63
2022-09-27T17:22:14.697Z,4.82
2022-09-27T17:24:47.207Z,4.53
2022-09-27T17:27:25.198Z,4.25
2022-09-27T17:29:58.585Z,4.40
2022-09-27T17:32:31.388Z,5.95
2022-09-27T17:35:04.897Z,5.23
2022-09-27T17:37:38.527Z,4.38
2022-09-27T17:40:11.154Z,4.38
2022-09-27T17:42:43.991Z,5.00
2022-09-27T17:45:16.442Z,4.72
2022-09-27T17:48:11.682Z,4.23
2022-09-27T17:50:46.591Z,4.55
2022-09-27T17:53:19.799Z,4.28
2022-09-27T17:55:54.929Z,4.95
2022-09-27T17:58:27.866Z,4.53
2022-09-27T18:01:07.555Z,3.55
2022-09-27T18:03:40.493Z,4.78
2022-09-27T18:06:14.008Z,5.47
2022-09-27T18:08:47.102Z,4.70
2022-09-27T18:11:29.585Z,4.97
2022-09-27T18:14:02.479Z,3.40
2022-09-27T18:16:37.348Z,3.00
2022-09-27T18:19:11.897Z,3.47
2022-09-27T18:21:44.532Z,3.00
2022-09-27T18:24:18.183Z,2.85
2022-09-27T18:26:50.739Z,2.67
2022-09-27T18:29:23.682Z,3.03
2022-09-27T18:31:56.253Z,3.10
2022-09-27T18:34:29.308Z,2.60
2022-09-27T18:37:01.765Z,2.38
2022-09-27T18:39:34.587Z,2.30
2022-09-27T18:42:07.739Z,2.40
2022-09-27T18:44:40.671Z,2.65
2022-09-27T18:47:13.176Z,2.00
2022-09-27T18:49:46.086Z,2.20
2022-09-27T18:52:18.673Z,2.13
2022-09-27T18:54:51.545Z,1.83
2022-09-27T18:57:24.829Z,2.10
2022-09-27T18:59:58.655Z,1.95
2022-09-27T19:02:32.622Z,1.80
2022-09-27T19:05:05.719Z,1.70
2022-09-27T19:07:40.210Z,2.35
2022-09-27T19:10:14.907Z,2.47
2022-09-27T19:12:48.290Z,2.22
2022-09-27T19:15:21.108Z,2.80
2022-09-27T19:17:53.963Z,2.67
2022-09-27T19:20:26.936Z,2.33
2022-09-27T19:22:59.520Z,1.85
2022-09-27T19:25:32.363Z,1.77
2022-09-27T19:28:04.815Z,1.35
2022-09-27T19:30:44.737Z,1.33
2022-09-27T19:33:17.300Z,1.52
2022-09-27T19:35:50.042Z,1.52
2022-09-27T19:38:22.600Z,1.83
2022-09-27T19:40:55.501Z,1.83
2022-09-27T19:43:28.403Z,1.70
2022-09-27T19:46:09.024Z,2.03
2022-09-27T19:48:42.484Z,2.03
2022-09-27T19:51:16.657Z,2.05
2022-09-27T19:53:49.545Z,1.77
2022-09-27T19:56:22.454Z,1.40
2022-09-27T19:58:55.093Z,1.60
2022-09-27T20:01:27.982Z,2.15
2022-09-27T20:04:00.524Z,1.88
2022-09-27T20:06:33.702Z,1.70
2022-09-27T20:09:06.202Z,3.10
2022-09-27T20:11:39.464Z,4.05
2022-09-27T20:14:11.997Z,3.83
2022-09-27T20:16:44.805Z,2.75
2022-09-27T20:19:17.496Z,2.85
2022-09-27T20:21:50.429Z,2.97
2022-09-27T20:24:22.922Z,2.60
2022-09-27T20:26:55.878Z,3.40
2022-09-27T20:29:28.491Z,3.55
2022-09-27T20:32:26.232Z,4.40
2022-09-27T20:34:54.866Z,3.17
2022-09-27T20:37:27.657Z,3.45
2022-09-27T20:40:00.151Z,4.50
2022-09-27T20:42:32.992Z,2.83
2022-09-27T20:45:05.679Z,1.98
2022-09-27T20:47:39.592Z,2.00
2022-09-27T20:50:12.505Z,2.17
2022-09-27T20:52:45.559Z,2.33
2022-09-27T20:55:18.087Z,3.38
2022-09-27T20:57:57.422Z,3.33
2022-09-27T21:00:30.962Z,2.45
2022-09-27T21:03:03.797Z,2.28
2022-09-27T21:05:36.381Z,1.98
2022-09-27T21:08:09.220Z,1.70
2022-09-27T21:10:41.772Z,1.48
2022-09-27T21:13:14.749Z,1.55
2022-09-27T21:15:47.812Z,2.08
2022-09-27T21:18:20.964Z,2.45
2022-09-27T21:21:22.517Z,2.50
2022-09-27T21:23:57.092Z,4.50
2022-09-27T21:26:31.054Z,5.82
2022-09-27T21:29:07.895Z,5.03
2022-09-27T21:31:40.728Z,3.67
2022-09-27T21:34:13.655Z,3.05
2022-09-27T21:36:46.101Z,3.38
2022-09-27T21:39:19.048Z,2.85
2022-09-27T21:41:51.561Z,3.50
2022-09-27T21:44:24.497Z,3.92
2022-09-27T21:46:57.024Z,2.45
2022-09-27T21:49:31.510Z,2.63
2022-09-27T21:52:04.214Z,2.63
2022-09-27T21:54:37.571Z,2.67
2022-09-27T21:57:10.350Z,3.10
2022-09-27T21:59:43.587Z,3.00
2022-09-27T22:02:18.430Z,2.78
2022-09-27T22:04:51.533Z,2.50
2022-09-27T22:07:24.129Z,2.40
2022-09-27T22:09:57.211Z,2.35
2022-09-27T22:12:29.788Z,2.00
2022-09-27T22:15:02.653Z,2.40
2022-09-27T22:17:35.117Z,1.92
2022-09-27T22:20:08.178Z,2.50
2022-09-27T22:22:40.623Z,2.70
2022-09-27T22:25:13.551Z,2.33
2022-09-27T22:27:46.056Z,2.80
2022-09-27T22:30:18.928Z,2.30
2022-09-27T22:32:51.899Z,2.42
2022-09-27T22:35:29.136Z,2.27
2022-09-27T22:38:01.704Z,3.63
2022-09-27T22:40:34.672Z,3.40
2022-09-27T22:43:07.862Z,2.72
2022-09-27T22:45:40.644Z,2.75
2022-09-27T22:48:13.237Z,2.70
2022-09-27T22:50:46.170Z,2.40
2022-09-27T22:53:18.678Z,2.03
2022-09-27T22:56:08.513Z,1.70
2022-09-27T22:58:43.342Z,1.70
2022-09-27T23:01:19.713Z,1.98
2022-09-27T23:03:53.053Z,2.10
2022-09-27T23:06:25.943Z,1.50
2022-09-27T23:08:58.615Z,1.90
2022-09-27T23:11:31.751Z,1.83
2022-09-27T23:14:05.478Z,1.80
2022-09-27T23:16:38.513Z,1.92
2022-09-27T23:19:11.110Z,1.50
2022-09-27T23:21:43.964Z,1.60
2022-09-27T23:24:16.648Z,1.55
2022-09-27T23:27:09.415Z,1.75
2022-09-27T23:29:42.055Z,1.50
2022-09-27T23:32:14.859Z,1.52
2022-09-27T23:34:47.379Z,2.08
2022-09-27T23:37:20.220Z,1.92
2022-09-27T23:39:52.818Z,1.80
2022-09-27T23:42:27.377Z,1.80
2022-09-27T23:45:00.828Z,1.80
2022-09-27T23:47:33.907Z,2.50
2022-09-27T23:50:07.004Z,2.38
2022-09-27T23:52:40.148Z,2.10
2022-09-27T23:55:12.853Z,2.20
2022-09-27T23:57:45.657Z,1.77
